sensor_id;sensor_type;location;lat;lon;timestamp;noise_LAeq;noise_LA_min;noise_LA_max;noise_LA01;noise_LA95
61321;Laerm;17737;52.586;13.284;2022-07-29T00:02:13;47.96;39.71;62.03;;
61321;Laerm;17737;52.586;13.284;2022-07-29T00:04:41;41.66;38.34;47.63;;
61321;Laerm;17737;52.586;13.284;2022-07-29T00:07:09;47.53;38.58;62.62;;
61321;Laerm;17737;52.586;13.284;2022-07-29T00:09:39;41.66;37.81;45.91;;
61321;Laerm;17737;52.586;13.284;2022-07-29T00:12:18;47.16;38.46;61.04;;
61321;Laerm;17737;52.586;13.284;2022-07-29T00:14:52;46.58;39.23;59.20;;
61321;Laerm;17737;52.586;13.284;2022-07-29T00:17:21;41.79;38.92;50.34;;
61321;Laerm;17737;52.586;13.284;2022-07-29T00:19:49;47.67;38.92;64.40;;
61321;Laerm;17737;52.586;13.284;2022-07-29T00:22:17;47.28;39.80;69.27;;
61321;Laerm;17737;52.586;13.284;2022-07-29T00:24:47;41.60;39.53;44.07;;
61321;Laerm;17737;52.586;13.284;2022-07-29T00:27:15;41.48;38.21;44.45;;
61321;Laerm;17737;52.586;13.284;2022-07-29T00:29:44;46.94;39.71;60.06;;
61321;Laerm;17737;52.586;13.284;2022-07-29T00:32:12;41.69;38.58;47.58;;
61321;Laerm;17737;52.586;13.284;2022-07-29T00:34:40;48.45;39.62;60.47;;
61321;Laerm;17737;52.586;13.284;2022-07-29T00:37:26;41.47;39.62;43.15;;
61321;Laerm;17737;52.586;13.284;2022-07-29T00:39:53;41.42;39.03;54.13;;
61321;Laerm;17737;52.586;13.284;2022-07-29T00:42:21;42.93;39.33;53.30;;
61321;Laerm;17737;52.586;13.284;2022-07-29T00:44:50;45.07;39.13;57.18;;
61321;Laerm;17737;52.586;13.284;2022-07-29T00:47:18;41.41;39.43;44.07;;
61321;Laerm;17737;52.586;13.284;2022-07-29T00:49:46;41.48;38.81;43.54;;
61321;Laerm;17737;52.586;13.284;2022-07-29T00:52:14;53.10;39.53;69.53;;
61321;Laerm;17737;52.586;13.284;2022-07-29T00:54:42;58.50;39.13;78.60;;
61321;Laerm;17737;52.586;13.284;2022-07-29T00:57:11;41.38;38.81;44.01;;
61321;Laerm;17737;52.586;13.284;2022-07-29T00:59:39;41.81;39.62;48.08;;
61321;Laerm;17737;52.586;13.284;2022-07-29T01:02:09;46.30;38.92;58.44;;
61321;Laerm;17737;52.586;13.284;2022-07-29T01:04:37;49.43;39.43;65.68;;
61321;Laerm;17737;52.586;13.284;2022-07-29T01:07:05;47.70;38.92;62.84;;
61321;Laerm;17737;52.586;13.284;2022-07-29T01:09:35;55.11;39.98;70.17;;
61321;Laerm;17737;52.586;13.284;2022-07-29T01:12:13;53.45;39.71;68.12;;
61321;Laerm;17737;52.586;13.284;2022-07-29T01:14:42;41.99;39.80;46.91;;
61321;Laerm;17737;52.586;13.284;2022-07-29T01:17:16;41.47;39.43;43.15;;
61321;Laerm;17737;52.586;13.284;2022-07-29T01:19:51;41.62;37.95;45.93;;
61321;Laerm;17737;52.586;13.284;2022-07-29T01:22:37;41.83;39.71;58.47;;
61321;Laerm;17737;52.586;13.284;2022-07-29T01:25:19;41.58;39.43;44.59;;
61321;Laerm;17737;52.586;13.284;2022-07-29T01:28:04;42.05;39.13;52.50;;
61321;Laerm;17737;52.586;13.284;2022-07-29T01:30:42;50.67;39.71;61.80;;
61321;Laerm;17737;52.586;13.284;2022-07-29T01:33:15;51.17;39.23;67.36;;
61321;Laerm;17737;52.586;13.284;2022-07-29T01:36:00;48.84;39.43;66.05;;
61321;Laerm;17737;52.586;13.284;2022-07-29T01:38:29;42.06;39.33;54.79;;
61321;Laerm;17737;52.586;13.284;2022-07-29T01:41:02;43.39;38.92;59.29;;
61321;Laerm;17737;52.586;13.284;2022-07-29T01:43:38;49.46;38.34;65.07;;
61321;Laerm;17737;52.586;13.284;2022-07-29T01:46:11;49.52;38.99;65.16;;
61321;Laerm;17737;52.586;13.284;2022-07-29T01:48:45;49.07;39.53;64.08;;
61321;Laerm;17737;52.586;13.284;2022-07-29T01:51:19;50.88;40.06;65.42;;
61321;Laerm;17737;52.586;13.284;2022-07-29T01:53:51;53.78;39.71;67.94;;
61321;Laerm;17737;52.586;13.284;2022-07-29T01:56:23;46.38;39.53;58.30;;
61321;Laerm;17737;52.586;13.284;2022-07-29T01:58:52;47.96;38.92;62.86;;
61321;Laerm;17737;52.586;13.284;2022-07-29T02:01:24;42.65;39.62;49.70;;
61321;Laerm;17737;52.586;13.284;2022-07-29T02:03:55;42.41;38.89;50.30;;
61321;Laerm;17737;52.586;13.284;2022-07-29T02:06:25;42.00;38.46;48.36;;
61321;Laerm;17737;52.586;13.284;2022-07-29T02:08:56;41.62;37.52;52.00;;
61321;Laerm;17737;52.586;13.284;2022-07-29T02:11:26;41.73;39.13;44.97;;
61321;Laerm;17737;52.586;13.284;2022-07-29T02:13:56;41.74;39.13;46.91;;
61321;Laerm;17737;52.586;13.284;2022-07-29T02:16:29;41.69;39.13;50.03;;
61321;Laerm;17737;52.586;13.284;2022-07-29T02:19:00;41.61;38.81;45.10;;
61321;Laerm;17737;52.586;13.284;2022-07-29T02:21:29;49.05;40.06;63.65;;
61321;Laerm;17737;52.586;13.284;2022-07-29T02:24:01;52.80;39.71;66.88;;
61321;Laerm;17737;52.586;13.284;2022-07-29T02:26:30;46.53;39.53;59.66;;
61321;Laerm;17737;52.586;13.284;2022-07-29T02:29:01;49.09;39.71;64.68;;
61321;Laerm;17737;52.586;13.284;2022-07-29T02:31:33;44.63;39.98;57.51;;
61321;Laerm;17737;52.586;13.284;2022-07-29T02:34:03;43.46;39.33;55.64;;
61321;Laerm;17737;52.586;13.284;2022-07-29T02:36:33;48.03;40.14;61.76;;
61321;Laerm;17737;52.586;13.284;2022-07-29T02:39:02;48.28;40.06;63.32;;
61321;Laerm;17737;52.586;13.284;2022-07-29T02:41:35;49.06;40.41;63.63;;
61321;Laerm;17737;52.586;13.284;2022-07-29T02:44:14;48.48;38.81;64.90;;
61321;Laerm;17737;52.586;13.284;2022-07-29T02:46:49;51.59;39.80;65.33;;
61321;Laerm;17737;52.586;13.284;2022-07-29T02:49:30;51.44;39.98;63.25;;
61321;Laerm;17737;52.586;13.284;2022-07-29T02:52:02;48.18;40.30;64.27;;
61321;Laerm;17737;52.586;13.284;2022-07-29T02:54:35;51.76;40.30;63.28;;
61321;Laerm;17737;52.586;13.284;2022-07-29T02:57:11;55.77;40.30;70.74;;
61321;Laerm;17737;52.586;13.284;2022-07-29T02:59:42;42.43;39.80;45.84;;
61321;Laerm;17737;52.586;13.284;2022-07-29T03:02:14;51.27;41.85;62.50;;
61321;Laerm;17737;52.586;13.284;2022-07-29T03:04:44;51.69;40.38;63.74;;
61321;Laerm;17737;52.586;13.284;2022-07-29T03:07:14;49.83;41.03;60.95;;
61321;Laerm;17737;52.586;13.284;2022-07-29T03:09:44;52.00;41.35;62.70;;
61321;Laerm;17737;52.586;13.284;2022-07-29T03:12:14;51.05;39.53;63.48;;
61321;Laerm;17737;52.586;13.284;2022-07-29T03:14:43;53.33;40.06;67.28;;
61321;Laerm;17737;52.586;13.284;2022-07-29T03:17:13;53.25;40.96;65.89;;
61321;Laerm;17737;52.586;13.284;2022-07-29T03:19:41;54.24;41.71;63.15;;
61321;Laerm;17737;52.586;13.284;2022-07-29T03:22:10;54.48;40.68;68.71;;
61321;Laerm;17737;52.586;13.284;2022-07-29T03:24:38;51.75;41.09;62.22;;
61321;Laerm;17737;52.586;13.284;2022-07-29T03:27:05;56.41;41.71;67.61;;
61321;Laerm;17737;52.586;13.284;2022-07-29T03:29:33;56.12;41.47;68.72;;
61321;Laerm;17737;52.586;13.284;2022-07-29T03:32:02;57.90;42.72;68.61;;
61321;Laerm;17737;52.586;13.284;2022-07-29T03:34:36;55.35;40.82;67.54;;
61321;Laerm;17737;52.586;13.284;2022-07-29T03:37:05;56.05;41.59;67.10;;
61321;Laerm;17737;52.586;13.284;2022-07-29T03:39:37;52.83;42.04;64.98;;
61321;Laerm;17737;52.586;13.284;2022-07-29T03:42:08;52.43;41.59;66.57;;
61321;Laerm;17737;52.586;13.284;2022-07-29T03:44:39;59.03;40.89;75.04;;
61321;Laerm;17737;52.586;13.284;2022-07-29T03:47:09;57.44;43.31;66.63;;
61321;Laerm;17737;52.586;13.284;2022-07-29T03:49:40;56.66;42.24;70.38;;
61321;Laerm;17737;52.586;13.284;2022-07-29T03:52:09;54.50;41.65;65.77;;
61321;Laerm;17737;52.586;13.284;2022-07-29T03:54:37;51.78;41.09;65.35;;
61321;Laerm;17737;52.586;13.284;2022-07-29T03:57:07;53.54;40.61;62.85;;
61321;Laerm;17737;52.586;13.284;2022-07-29T03:59:36;56.38;41.59;67.35;;
61321;Laerm;17737;52.586;13.284;2022-07-29T04:02:09;54.15;41.09;66.28;;
61321;Laerm;17737;52.586;13.284;2022-07-29T04:04:41;52.93;41.16;65.92;;
61321;Laerm;17737;52.586;13.284;2022-07-29T04:07:11;55.57;41.53;64.88;;
61321;Laerm;17737;52.586;13.284;2022-07-29T04:09:39;56.09;41.53;68.04;;
61321;Laerm;17737;52.586;13.284;2022-07-29T04:12:08;55.63;41.03;66.85;;
61321;Laerm;17737;52.586;13.284;2022-07-29T04:14:36;56.27;41.29;67.19;;
61321;Laerm;17737;52.586;13.284;2022-07-29T04:17:04;61.31;42.81;78.29;;
61321;Laerm;17737;52.586;13.284;2022-07-29T04:19:32;59.05;41.88;68.95;;
61321;Laerm;17737;52.586;13.284;2022-07-29T04:22:01;57.26;41.82;68.43;;
61321;Laerm;17737;52.586;13.284;2022-07-29T04:24:29;58.22;41.76;67.68;;
61321;Laerm;17737;52.586;13.284;2022-07-29T04:26:57;58.51;41.71;68.72;;
61321;Laerm;17737;52.586;13.284;2022-07-29T04:29:24;59.78;42.34;73.60;;
61321;Laerm;17737;52.586;13.284;2022-07-29T04:31:52;59.45;42.04;72.38;;
61321;Laerm;17737;52.586;13.284;2022-07-29T04:34:20;56.15;41.03;66.66;;
61321;Laerm;17737;52.586;13.284;2022-07-29T04:36:53;55.99;41.71;67.41;;
61321;Laerm;17737;52.586;13.284;2022-07-29T04:39:22;57.78;42.58;67.10;;
61321;Laerm;17737;52.586;13.284;2022-07-29T04:41:52;57.87;43.19;67.01;;
61321;Laerm;17737;52.586;13.284;2022-07-29T04:44:21;56.86;43.54;67.27;;
61321;Laerm;17737;52.586;13.284;2022-07-29T04:46:55;58.76;43.35;70.19;;
61321;Laerm;17737;52.586;13.284;2022-07-29T04:49:23;58.00;41.29;72.08;;
61321;Laerm;17737;52.586;13.284;2022-07-29T04:51:51;59.78;42.14;67.52;;
61321;Laerm;17737;52.586;13.284;2022-07-29T04:54:19;56.20;41.13;66.63;;
61321;Laerm;17737;52.586;13.284;2022-07-29T04:56:48;57.22;42.44;67.64;;
61321;Laerm;17737;52.586;13.284;2022-07-29T04:59:16;55.45;42.34;64.93;;
61321;Laerm;17737;52.586;13.284;2022-07-29T05:01:43;58.20;42.72;66.70;;
61321;Laerm;17737;52.586;13.284;2022-07-29T05:04:11;56.11;43.54;65.48;;
61321;Laerm;17737;52.586;13.284;2022-07-29T05:06:39;56.51;41.22;68.41;;
61321;Laerm;17737;52.586;13.284;2022-07-29T05:09:07;59.90;43.54;68.73;;
61321;Laerm;17737;52.586;13.284;2022-07-29T05:11:35;60.72;45.18;72.69;;
61321;Laerm;17737;52.586;13.284;2022-07-29T05:14:04;58.15;41.59;70.88;;
61321;Laerm;17737;52.586;13.284;2022-07-29T05:16:32;57.34;42.19;67.79;;
61321;Laerm;17737;52.586;13.284;2022-07-29T05:19:00;58.43;42.77;67.83;;
61321;Laerm;17737;52.586;13.284;2022-07-29T05:21:27;58.66;42.58;67.67;;
61321;Laerm;17737;52.586;13.284;2022-07-29T05:23:55;60.01;42.80;73.29;;
61321;Laerm;17737;52.586;13.284;2022-07-29T05:26:23;60.41;43.62;68.65;;
61321;Laerm;17737;52.586;13.284;2022-07-29T05:28:51;61.30;42.39;70.27;;
61321;Laerm;17737;52.586;13.284;2022-07-29T05:31:21;58.10;42.81;67.13;;
61321;Laerm;17737;52.586;13.284;2022-07-29T05:33:49;58.20;42.77;67.86;;
61321;Laerm;17737;52.586;13.284;2022-07-29T05:36:17;58.47;44.63;67.02;;
61321;Laerm;17737;52.586;13.284;2022-07-29T05:38:44;58.22;45.33;68.27;;
61321;Laerm;17737;52.586;13.284;2022-07-29T05:41:12;57.66;46.70;68.45;;
61321;Laerm;17737;52.586;13.284;2022-07-29T05:43:40;57.90;42.44;69.63;;
61321;Laerm;17737;52.586;13.284;2022-07-29T05:46:08;57.06;42.49;66.01;;
61321;Laerm;17737;52.586;13.284;2022-07-29T05:48:37;59.28;42.54;70.06;;
61321;Laerm;17737;52.586;13.284;2022-07-29T05:51:05;59.15;41.76;72.92;;
61321;Laerm;17737;52.586;13.284;2022-07-29T05:53:33;56.61;41.47;68.48;;
61321;Laerm;17737;52.586;13.284;2022-07-29T05:56:03;59.79;44.45;67.73;;
61321;Laerm;17737;52.586;13.284;2022-07-29T05:58:31;57.80;42.39;65.80;;
61321;Laerm;17737;52.586;13.284;2022-07-29T06:00:59;58.23;45.62;66.59;;
61321;Laerm;17737;52.586;13.284;2022-07-29T06:03:27;54.64;42.09;64.69;;
61321;Laerm;17737;52.586;13.284;2022-07-29T06:05:57;57.79;42.49;71.81;;
61321;Laerm;17737;52.586;13.284;2022-07-29T06:08:25;57.57;43.80;66.21;;
61321;Laerm;17737;52.586;13.284;2022-07-29T06:10:53;56.03;41.76;70.43;;
61321;Laerm;17737;52.586;13.284;2022-07-29T06:13:21;57.11;42.44;69.76;;
61321;Laerm;17737;52.586;13.284;2022-07-29T06:15:49;60.48;46.50;69.19;;
61321;Laerm;17737;52.586;13.284;2022-07-29T06:18:16;58.38;41.93;66.89;;
61321;Laerm;17737;52.586;13.284;2022-07-29T06:20:44;59.81;41.88;67.54;;
61321;Laerm;17737;52.586;13.284;2022-07-29T06:23:13;59.11;46.96;66.74;;
61321;Laerm;17737;52.586;13.284;2022-07-29T06:25:41;64.94;47.21;82.58;;
61321;Laerm;17737;52.586;13.284;2022-07-29T06:28:10;61.57;47.23;76.50;;
61321;Laerm;17737;52.586;13.284;2022-07-29T06:30:38;55.16;42.90;64.72;;
61321;Laerm;17737;52.586;13.284;2022-07-29T06:33:06;57.25;42.63;66.32;;
61321;Laerm;17737;52.586;13.284;2022-07-29T06:35:35;59.24;43.39;70.69;;
61321;Laerm;17737;52.586;13.284;2022-07-29T06:38:07;57.90;43.47;67.52;;
61321;Laerm;17737;52.586;13.284;2022-07-29T06:40:57;59.61;43.54;76.82;;
61321;Laerm;17737;52.586;13.284;2022-07-29T06:43:30;59.48;44.30;72.22;;
61321;Laerm;17737;52.586;13.284;2022-07-29T06:46:01;56.63;42.58;65.09;;
61321;Laerm;17737;52.586;13.284;2022-07-29T06:48:29;59.10;43.83;67.91;;
61321;Laerm;17737;52.586;13.284;2022-07-29T06:50:57;61.13;46.46;74.80;;
61321;Laerm;17737;52.586;13.284;2022-07-29T06:53:25;59.32;43.76;69.87;;
61321;Laerm;17737;52.586;13.284;2022-07-29T06:55:53;60.16;42.14;71.36;;
61321;Laerm;17737;52.586;13.284;2022-07-29T06:58:22;57.84;42.09;68.33;;
61321;Laerm;17737;52.586;13.284;2022-07-29T07:00:50;54.68;44.51;63.71;;
61321;Laerm;17737;52.586;13.284;2022-07-29T07:03:18;59.96;44.01;71.10;;
61321;Laerm;17737;52.586;13.284;2022-07-29T07:05:46;59.91;42.99;70.89;;
61321;Laerm;17737;52.586;13.284;2022-07-29T07:08:14;59.53;46.40;68.91;;
61321;Laerm;17737;52.586;13.284;2022-07-29T07:10:43;58.71;45.87;71.73;;
61321;Laerm;17737;52.586;13.284;2022-07-29T07:13:11;60.04;45.13;69.78;;
61321;Laerm;17737;52.586;13.284;2022-07-29T07:15:40;59.91;43.35;69.54;;
61321;Laerm;17737;52.586;13.284;2022-07-29T07:18:08;59.57;44.11;71.25;;
61321;Laerm;17737;52.586;13.284;2022-07-29T07:20:36;56.54;43.19;68.65;;
61321;Laerm;17737;52.586;13.284;2022-07-29T07:23:04;59.46;44.27;71.41;;
61321;Laerm;17737;52.586;13.284;2022-07-29T07:25:32;58.39;43.07;71.12;;
61321;Laerm;17737;52.586;13.284;2022-07-29T07:28:00;60.75;44.20;69.17;;
61321;Laerm;17737;52.586;13.284;2022-07-29T07:30:27;59.15;44.99;68.63;;
61321;Laerm;17737;52.586;13.284;2022-07-29T07:32:57;58.28;43.23;72.80;;
61321;Laerm;17737;52.586;13.284;2022-07-29T07:35:24;57.32;43.54;67.67;;
61321;Laerm;17737;52.586;13.284;2022-07-29T07:37:54;58.11;43.62;71.71;;
61321;Laerm;17737;52.586;13.284;2022-07-29T07:40:22;57.98;42.72;71.64;;
61321;Laerm;17737;52.586;13.284;2022-07-29T07:42:50;55.49;41.65;64.97;;
61321;Laerm;17737;52.586;13.284;2022-07-29T07:45:18;55.50;42.14;65.25;;
61321;Laerm;17737;52.586;13.284;2022-07-29T07:47:45;56.19;42.86;64.73;;
61321;Laerm;17737;52.586;13.284;2022-07-29T07:50:15;59.53;45.78;66.52;;
61321;Laerm;17737;52.586;13.284;2022-07-29T07:52:49;59.23;42.99;72.19;;
61321;Laerm;17737;52.586;13.284;2022-07-29T07:55:21;56.70;42.19;65.76;;
61321;Laerm;17737;52.586;13.284;2022-07-29T07:57:49;59.10;44.01;77.34;;
61321;Laerm;17737;52.586;13.284;2022-07-29T08:00:17;58.56;44.48;66.09;;
61321;Laerm;17737;52.586;13.284;2022-07-29T08:02:48;62.74;47.05;89.17;;
61321;Laerm;17737;52.586;13.284;2022-07-29T08:05:18;60.05;47.23;70.22;;
61321;Laerm;17737;52.586;13.284;2022-07-29T08:07:49;58.30;43.15;68.84;;
61321;Laerm;17737;52.586;13.284;2022-07-29T08:10:18;59.60;46.12;67.13;;
61321;Laerm;17737;52.586;13.284;2022-07-29T08:13:01;58.12;44.57;67.39;;
61321;Laerm;17737;52.586;13.284;2022-07-29T08:15:29;57.74;49.10;68.96;;
61321;Laerm;17737;52.586;13.284;2022-07-29T08:17:57;62.76;55.57;81.72;;
61321;Laerm;17737;52.586;13.284;2022-07-29T08:20:27;72.34;49.35;96.54;;
61321;Laerm;17737;52.586;13.284;2022-07-29T08:22:56;60.13;44.27;79.07;;
61321;Laerm;17737;52.586;13.284;2022-07-29T08:25:23;59.22;43.76;73.13;;
61321;Laerm;17737;52.586;13.284;2022-07-29T08:27:51;59.01;46.18;66.61;;
61321;Laerm;17737;52.586;13.284;2022-07-29T08:30:19;57.49;43.54;70.02;;
61321;Laerm;17737;52.586;13.284;2022-07-29T08:32:47;58.57;43.03;70.61;;
61321;Laerm;17737;52.586;13.284;2022-07-29T08:35:21;59.63;43.90;67.99;;
61321;Laerm;17737;52.586;13.284;2022-07-29T08:37:50;56.55;43.73;66.63;;
61321;Laerm;17737;52.586;13.284;2022-07-29T08:40:19;56.82;42.09;69.17;;
61321;Laerm;17737;52.586;13.284;2022-07-29T08:42:57;57.08;44.04;69.04;;
61321;Laerm;17737;52.586;13.284;2022-07-29T08:45:27;58.00;44.69;65.97;;
61321;Laerm;17737;52.586;13.284;2022-07-29T08:47:56;59.76;42.86;72.25;;
61321;Laerm;17737;52.586;13.284;2022-07-29T08:50:24;58.74;42.90;70.14;;
61321;Laerm;17737;52.586;13.284;2022-07-29T08:52:54;58.50;44.36;66.62;;
61321;Laerm;17737;52.586;13.284;2022-07-29T08:55:25;58.76;44.94;70.32;;
61321;Laerm;17737;52.586;13.284;2022-07-29T08:57:55;59.49;44.69;70.65;;
61321;Laerm;17737;52.586;13.284;2022-07-29T09:00:24;58.92;44.60;68.23;;
61321;Laerm;17737;52.586;13.284;2022-07-29T09:02:57;58.73;43.07;67.08;;
61321;Laerm;17737;52.586;13.284;2022-07-29T09:05:26;58.78;42.99;66.55;;
61321;Laerm;17737;52.586;13.284;2022-07-29T09:07:55;59.12;44.80;69.21;;
61321;Laerm;17737;52.586;13.284;2022-07-29T09:10:24;59.27;43.54;71.05;;
61321;Laerm;17737;52.586;13.284;2022-07-29T09:12:52;58.55;47.00;68.02;;
61321;Laerm;17737;52.586;13.284;2022-07-29T09:15:19;61.30;44.42;71.75;;
61321;Laerm;17737;52.586;13.284;2022-07-29T09:17:49;59.09;45.38;71.59;;
61321;Laerm;17737;52.586;13.284;2022-07-29T09:20:18;58.46;44.72;70.84;;
61321;Laerm;17737;52.586;13.284;2022-07-29T09:22:48;58.00;43.90;65.52;;
61321;Laerm;17737;52.586;13.284;2022-07-29T09:25:34;58.13;42.72;68.75;;
61321;Laerm;17737;52.586;13.284;2022-07-29T09:28:06;59.54;44.07;69.42;;
61321;Laerm;17737;52.586;13.284;2022-07-29T09:30:35;57.49;44.14;66.75;;
61321;Laerm;17737;52.586;13.284;2022-07-29T09:33:03;58.70;44.01;66.07;;
61321;Laerm;17737;52.586;13.284;2022-07-29T09:35:31;56.73;42.54;66.20;;
61321;Laerm;17737;52.586;13.284;2022-07-29T09:38:10;58.49;47.05;66.85;;
61321;Laerm;17737;52.586;13.284;2022-07-29T09:40:40;57.96;43.19;69.40;;
61321;Laerm;17737;52.586;13.284;2022-07-29T09:43:11;58.63;44.36;69.36;;
61321;Laerm;17737;52.586;13.284;2022-07-29T09:45:39;57.58;44.66;65.81;;
61321;Laerm;17737;52.586;13.284;2022-07-29T09:48:14;59.34;43.97;66.96;;
61321;Laerm;17737;52.586;13.284;2022-07-29T09:50:44;56.80;43.27;67.23;;
61321;Laerm;17737;52.586;13.284;2022-07-29T09:53:30;58.90;45.02;67.07;;
61321;Laerm;17737;52.586;13.284;2022-07-29T09:56:00;54.66;43.31;63.27;;
61321;Laerm;17737;52.586;13.284;2022-07-29T09:58:28;58.57;45.20;70.69;;
61321;Laerm;17737;52.586;13.284;2022-07-29T10:00:56;58.57;44.69;67.44;;
61321;Laerm;17737;52.586;13.284;2022-07-29T10:03:24;59.94;46.81;72.00;;
61321;Laerm;17737;52.586;13.284;2022-07-29T10:06:06;57.61;44.83;65.09;;
61321;Laerm;17737;52.586;13.284;2022-07-29T10:08:34;60.29;46.16;67.02;;
61321;Laerm;17737;52.586;13.284;2022-07-29T10:11:11;56.85;44.97;64.45;;
61321;Laerm;17737;52.586;13.284;2022-07-29T10:13:40;58.49;44.42;66.58;;
61321;Laerm;17737;52.586;13.284;2022-07-29T10:16:09;59.01;46.20;69.22;;
61321;Laerm;17737;52.586;13.284;2022-07-29T10:18:40;58.84;46.00;73.61;;
61321;Laerm;17737;52.586;13.284;2022-07-29T10:21:09;58.46;44.72;67.17;;
61321;Laerm;17737;52.586;13.284;2022-07-29T10:23:57;57.84;45.91;71.50;;
61321;Laerm;17737;52.586;13.284;2022-07-29T10:26:29;59.24;45.95;72.57;;
61321;Laerm;17737;52.586;13.284;2022-07-29T10:28:57;58.74;42.44;70.22;;
61321;Laerm;17737;52.586;13.284;2022-07-29T10:31:29;56.63;43.65;65.71;;
61321;Laerm;17737;52.586;13.284;2022-07-29T10:34:10;61.34;46.88;75.64;;
61321;Laerm;17737;52.586;13.284;2022-07-29T10:36:53;58.47;44.30;68.47;;
61321;Laerm;17737;52.586;13.284;2022-07-29T10:39:33;56.90;44.01;68.61;;
61321;Laerm;17737;52.586;13.284;2022-07-29T10:42:17;59.07;42.90;68.78;;
61321;Laerm;17737;52.586;13.284;2022-07-29T10:45:02;57.72;45.15;69.48;;
61321;Laerm;17737;52.586;13.284;2022-07-29T10:47:31;57.53;42.81;67.67;;
61321;Laerm;17737;52.586;13.284;2022-07-29T10:50:02;58.68;44.01;69.31;;
61321;Laerm;17737;52.586;13.284;2022-07-29T10:52:53;57.31;43.19;70.70;;
61321;Laerm;17737;52.586;13.284;2022-07-29T10:55:37;59.67;47.21;76.62;;
61321;Laerm;17737;52.586;13.284;2022-07-29T10:58:16;57.64;45.45;73.95;;
61321;Laerm;17737;52.586;13.284;2022-07-29T11:00:45;56.21;44.23;64.36;;
61321;Laerm;17737;52.586;13.284;2022-07-29T11:03:43;55.98;44.20;72.47;;
61321;Laerm;17737;52.586;13.284;2022-07-29T11:06:16;56.71;44.86;75.28;;
61321;Laerm;17737;52.586;13.284;2022-07-29T11:09:17;60.16;43.19;71.60;;
61321;Laerm;17737;52.586;13.284;2022-07-29T11:12:45;62.78;44.57;76.65;;
61321;Laerm;17737;52.586;13.284;2022-07-29T11:15:16;66.59;43.94;97.04;;
61321;Laerm;17737;52.586;13.284;2022-07-29T11:18:05;59.62;44.77;68.80;;
61321;Laerm;17737;52.586;13.284;2022-07-29T11:20:41;56.58;44.57;67.47;;
61321;Laerm;17737;52.586;13.284;2022-07-29T11:23:19;57.25;46.44;65.53;;
61321;Laerm;17737;52.586;13.284;2022-07-29T11:26:13;58.98;44.99;67.06;;
61321;Laerm;17737;52.586;13.284;2022-07-29T11:28:50;59.45;43.69;68.54;;
61321;Laerm;17737;52.586;13.284;2022-07-29T11:31:33;57.63;44.54;67.83;;
61321;Laerm;17737;52.586;13.284;2022-07-29T11:34:19;56.45;44.48;69.20;;
61321;Laerm;17737;52.586;13.284;2022-07-29T11:37:22;56.93;43.23;69.76;;
61321;Laerm;17737;52.586;13.284;2022-07-29T11:40:14;60.36;44.80;70.26;;
61321;Laerm;17737;52.586;13.284;2022-07-29T11:43:03;58.60;44.97;69.96;;
61321;Laerm;17737;52.586;13.284;2022-07-29T11:45:45;58.52;46.12;67.31;;
61321;Laerm;17737;52.586;13.284;2022-07-29T11:48:18;58.81;44.36;68.32;;
61321;Laerm;17737;52.586;13.284;2022-07-29T11:50:57;60.99;45.69;72.69;;
61321;Laerm;17737;52.586;13.284;2022-07-29T11:53:25;57.50;44.23;67.88;;
61321;Laerm;17737;52.586;13.284;2022-07-29T11:55:58;59.24;44.54;67.01;;
61321;Laerm;17737;52.586;13.284;2022-07-29T11:58:29;57.47;45.50;74.04;;
61321;Laerm;17737;52.586;13.284;2022-07-29T12:00:57;59.85;42.34;71.66;;
61321;Laerm;17737;52.586;13.284;2022-07-29T12:03:32;58.63;45.07;69.68;;
61321;Laerm;17737;52.586;13.284;2022-07-29T12:06:03;57.62;42.86;66.93;;
61321;Laerm;17737;52.586;13.284;2022-07-29T12:08:40;60.21;44.54;71.60;;
61321;Laerm;17737;52.586;13.284;2022-07-29T12:11:15;55.17;43.62;67.92;;
61321;Laerm;17737;52.586;13.284;2022-07-29T12:13:46;59.80;46.12;70.61;;
61321;Laerm;17737;52.586;13.284;2022-07-29T12:16:15;59.26;46.04;68.92;;
61321;Laerm;17737;52.586;13.284;2022-07-29T12:18:57;60.46;49.21;68.08;;
61321;Laerm;17737;52.586;13.284;2022-07-29T12:21:25;55.54;44.04;63.24;;
61321;Laerm;17737;52.586;13.284;2022-07-29T12:23:55;59.04;45.20;66.48;;
61321;Laerm;17737;52.586;13.284;2022-07-29T12:26:32;56.81;45.40;64.94;;
61321;Laerm;17737;52.586;13.284;2022-07-29T12:29:01;60.16;43.92;74.90;;
61321;Laerm;17737;52.586;13.284;2022-07-29T12:31:37;60.82;46.84;73.14;;
61321;Laerm;17737;52.586;13.284;2022-07-29T12:34:13;60.05;46.68;69.42;;
61321;Laerm;17737;52.586;13.284;2022-07-29T12:36:42;58.53;42.94;65.69;;
61321;Laerm;17737;52.586;13.284;2022-07-29T12:39:10;59.17;43.19;70.55;;
61321;Laerm;17737;52.586;13.284;2022-07-29T12:41:38;59.56;45.10;68.88;;
61321;Laerm;17737;52.586;13.284;2022-07-29T12:44:06;60.39;45.84;71.74;;
61321;Laerm;17737;52.586;13.284;2022-07-29T12:46:34;59.63;45.18;67.66;;
61321;Laerm;17737;52.586;13.284;2022-07-29T12:49:03;58.15;45.23;66.80;;
61321;Laerm;17737;52.586;13.284;2022-07-29T12:51:34;57.04;45.59;66.56;;
61321;Laerm;17737;52.586;13.284;2022-07-29T12:54:07;60.26;45.40;74.15;;
61321;Laerm;17737;52.586;13.284;2022-07-29T12:56:37;58.83;44.17;68.34;;
61321;Laerm;17737;52.586;13.284;2022-07-29T12:59:15;61.16;43.97;70.91;;
61321;Laerm;17737;52.586;13.284;2022-07-29T13:01:44;57.56;44.60;67.77;;
61321;Laerm;17737;52.586;13.284;2022-07-29T13:04:24;59.18;45.25;66.76;;
61321;Laerm;17737;52.586;13.284;2022-07-29T13:06:59;60.06;42.00;70.95;;
61321;Laerm;17737;52.586;13.284;2022-07-29T13:09:38;59.38;44.17;68.31;;
61321;Laerm;17737;52.586;13.284;2022-07-29T13:12:07;58.93;46.12;72.18;;
61321;Laerm;17737;52.586;13.284;2022-07-29T13:14:38;55.38;44.14;63.75;;
61321;Laerm;17737;52.586;13.284;2022-07-29T13:17:08;61.03;48.47;75.12;;
61321;Laerm;17737;52.586;13.284;2022-07-29T13:19:38;58.69;43.94;68.10;;
61321;Laerm;17737;52.586;13.284;2022-07-29T13:22:09;60.45;44.23;72.22;;
61321;Laerm;17737;52.586;13.284;2022-07-29T13:24:48;59.64;46.04;68.44;;
61321;Laerm;17737;52.586;13.284;2022-07-29T13:27:16;58.23;47.48;68.91;;
61321;Laerm;17737;52.586;13.284;2022-07-29T13:29:44;73.28;50.94;93.60;;
61321;Laerm;17737;52.586;13.284;2022-07-29T13:32:13;57.80;42.94;66.51;;
61321;Laerm;17737;52.586;13.284;2022-07-29T13:34:41;59.90;45.18;70.54;;
61321;Laerm;17737;52.586;13.284;2022-07-29T13:37:10;57.92;45.38;65.46;;
61321;Laerm;17737;52.586;13.284;2022-07-29T13:39:38;60.10;45.07;68.31;;
61321;Laerm;17737;52.586;13.284;2022-07-29T13:42:06;58.25;43.58;67.75;;
61321;Laerm;17737;52.586;13.284;2022-07-29T13:44:36;59.57;43.03;69.58;;
61321;Laerm;17737;52.586;13.284;2022-07-29T13:47:04;58.73;45.33;67.19;;
61321;Laerm;17737;52.586;13.284;2022-07-29T13:49:32;58.58;46.83;66.40;;
61321;Laerm;17737;52.586;13.284;2022-07-29T13:52:00;59.54;44.27;71.54;;
61321;Laerm;17737;52.586;13.284;2022-07-29T13:54:29;55.92;44.63;65.66;;
61321;Laerm;17737;52.586;13.284;2022-07-29T13:56:57;59.43;47.15;69.69;;